Vremea mâine în Abrud - Romania

Vrei sa afli care e starea vremii acum in Alba - Romania? Dorim sa iti furnizam starea vremii pentru Alba - Romania. Starea vremii Alba - Romania pentru astazi.

Vremea mâine în Abrud

Temperatura minimă:
7.3 °C

Temperatura maximă:
20.7 °C

Mâine va fi: Patchy rain nearby
Precipitații: 88 %
Umiditate: 59%
Viteza maximă vânt mâine:
13.7 km/h

Evoluția vremii in Abrud pe ore mâine

Ora: 02:00
Temperatura: °C
Sansa de precipitatii: %
Ora Descriere Temp Se simte Precipitatii Umiditate Vant
00:00Senin8.7°8.5°0%66%N 4.3 KM/H
01:00Senin8.5°8.3°0%64%NNE 4.3 KM/H
02:00Senin8.4°8.2°0%65%N 4.3 KM/H
03:00Patchy rain nearby8.1°88%69%NNE 4 KM/H
04:00Senin8.2°0%72%NNE 3.2 KM/H
05:00Senin7.6°7.6°0%75%N 2.9 KM/H
06:00Senin7.3°7.3°0%76%NNW 2.9 KM/H
07:00Senin8.3°8.4°0%74%NNE 2.5 KM/H
08:00Senin13.8°13.8°0%65%WSW 0.7 KM/H
09:00Senin16.2°16.2°0%56%SW 5 KM/H
10:00Senin17.7°17.8°0%49%SW 6.8 KM/H
11:00Senin18.9°18.9°0%44%SW 9 KM/H
12:00Senin19.4°19.5°0%41%SW 10.8 KM/H
13:0020°20.1°0%38%SW 12.6 KM/H
14:00Innorat20.5°20.5°0%37%WSW 13 KM/H
15:00Acoperit de nori20.7°20.7°0%37%WSW 12.6 KM/H
16:00Acoperit de nori20.7°20.7°0%36%WSW 12.2 KM/H
17:0020.1°20.1°0%38%WSW 13.7 KM/H
18:00Senin19.5°19.5°0%41%W 13.3 KM/H
19:00Patchy rain nearby18.2°18.2°100%52%W 9.7 KM/H
20:00Patchy rain nearby12.6°12.7°75%70%W 5 KM/H
21:00Patchy rain nearby9.8°9.9°100%80%WNW 2.5 KM/H
22:00Senin0%84%N 2.2 KM/H
23:00Senin8.5°8.6°0%86%NNE 3.6 KM/H




tutorials